createdAt,value
2017-10-22T14:39:38.030Z,53.93
2017-10-22T14:40:37.691Z,54.03
2017-10-22T14:41:37.707Z,54.48
2017-10-22T14:42:37.725Z,55.24
2017-10-22T14:43:37.740Z,55.43
2017-10-22T14:44:38.095Z,55.34
2017-10-22T14:45:37.785Z,55.43
2017-10-22T14:46:38.139Z,55.82
2017-10-22T14:47:38.167Z,55.53
2017-10-22T14:48:37.874Z,55.91
2017-10-22T14:49:38.214Z,55.91
2017-10-22T14:50:38.223Z,55.82
2017-10-22T14:51:38.227Z,55.34
2017-10-22T14:52:38.241Z,56.01
2017-10-22T14:53:38.262Z,56.38
2017-10-22T14:54:38.284Z,57.15
2017-10-22T14:55:38.292Z,57.63
2017-10-22T14:56:37.964Z,58.68
2017-10-22T14:57:38.310Z,57.43
2017-10-22T14:58:38.006Z,58.29
2017-10-22T14:59:38.131Z,58.97
2017-10-22T15:00:38.376Z,58.48
2017-10-22T15:01:38.056Z,57.72
2017-10-22T15:02:38.077Z,56.87
2017-10-22T15:03:38.150Z,55.82
2017-10-22T15:04:38.112Z,55.43
2017-10-22T15:05:38.518Z,55.91
2017-10-22T15:06:38.211Z,55.34
2017-10-22T15:07:38.602Z,55.43
2017-10-22T15:08:38.630Z,55.08
2017-10-22T15:09:38.532Z,55.55
2017-10-22T15:10:38.234Z,55.08
2017-10-22T15:11:38.643Z,55.18
2017-10-22T15:12:38.276Z,54.7
2017-10-22T15:13:38.304Z,54.6
2017-10-22T15:14:38.316Z,54.41
2017-10-22T15:15:38.324Z,54.41
2017-10-22T15:16:38.349Z,55.65
2017-10-22T15:17:38.369Z,55.08
2017-10-22T15:18:38.388Z,55.36
2017-10-22T15:19:38.407Z,55.08
2017-10-22T15:20:38.477Z,55.27
2017-10-22T15:21:38.504Z,54.99
2017-10-22T15:22:38.903Z,55.55
2017-10-22T15:23:38.890Z,55.55
2017-10-22T15:24:38.916Z,55.46
2017-10-22T15:25:38.579Z,55.84
2017-10-22T15:26:38.875Z,55.84
2017-10-22T15:27:38.993Z,56.04
2017-10-22T15:28:38.593Z,56.13
2017-10-22T15:29:38.999Z,56.32
2017-10-22T15:30:39.036Z,55.84
2017-10-22T15:31:38.655Z,55.84
2017-10-22T15:32:38.674Z,55.55
2017-10-22T15:33:38.693Z,55.77
2017-10-22T15:34:38.715Z,55.68
2017-10-22T15:35:38.800Z,55.68
2017-10-22T15:36:38.753Z,56.06
2017-10-22T15:37:38.781Z,56.16
2017-10-22T15:38:38.794Z,56.54
2017-10-22T15:39:39.164Z,57.28
2017-10-22T15:40:38.838Z,57.68
2017-10-22T15:41:38.864Z,57.65
2017-10-22T15:42:38.888Z,58.36
2017-10-22T15:43:38.906Z,57.68
2017-10-22T15:44:38.919Z,58.64
2017-10-22T15:45:38.958Z,58.9
2017-10-22T15:46:38.958Z,59.66
2017-10-22T15:47:38.983Z,60.24
2017-10-22T15:48:39.007Z,60.24
2017-10-22T15:49:39.016Z,60.33
2017-10-22T15:50:39.098Z,60.9
2017-10-22T15:51:39.068Z,61.07
2017-10-22T15:52:39.086Z,61.83
2017-10-22T15:53:39.107Z,61.63
2017-10-22T15:54:39.121Z,62.11
2017-10-22T15:55:39.149Z,62.02
2017-10-22T15:56:39.170Z,61.92
2017-10-22T15:57:39.179Z,62.78
2017-10-22T15:58:39.205Z,61.73
2017-10-22T15:59:39.223Z,62.05
2017-10-22T16:00:39.245Z,62.02
2017-10-22T16:01:39.855Z,61.73
2017-10-22T16:02:39.286Z,62.59
2017-10-22T16:03:39.303Z,64.4
2017-10-22T16:04:39.322Z,65.93
2017-10-22T16:05:39.401Z,65.55
2017-10-22T16:06:39.361Z,66.41
2017-10-22T16:07:39.384Z,65.93
2017-10-22T16:08:39.405Z,67.07
2017-10-22T16:09:39.433Z,67.17
2017-10-22T16:10:39.442Z,67.23
2017-10-22T16:11:39.468Z,67.52
2017-10-22T16:12:39.486Z,67.52
2017-10-22T16:13:39.834Z,67.42
2017-10-22T16:14:39.525Z,67.99
2017-10-22T16:15:39.544Z,68.34
2017-10-22T16:16:39.573Z,68.44
2017-10-22T16:17:39.580Z,68.24
2017-10-22T16:18:39.601Z,69.2
2017-10-22T16:19:39.622Z,69.1
2017-10-22T16:20:39.688Z,68.53
2017-10-22T16:21:39.663Z,69.1
2017-10-22T16:22:39.681Z,68.91
2017-10-22T16:23:39.700Z,69.01
2017-10-22T16:24:39.715Z,69.2
2017-10-22T16:25:39.747Z,69.2
2017-10-22T16:26:39.757Z,69.1
2017-10-22T16:27:39.777Z,69.2
2017-10-22T16:28:40.150Z,67.96
2017-10-22T16:29:39.811Z,68.53
2017-10-22T16:30:39.832Z,68.44
2017-10-22T16:31:39.857Z,67.48
2017-10-22T16:32:39.869Z,66.72
2017-10-22T16:33:39.897Z,67.77
2017-10-22T16:34:39.905Z,67.39
2017-10-22T16:35:39.950Z,67.58
2017-10-22T16:36:39.954Z,67.68
2017-10-22T16:37:39.967Z,67.77
2017-10-22T16:38:39.989Z,68.15
2017-10-22T16:39:40.084Z,67.96
2017-10-22T16:40:40.043Z,67.96
2017-10-22T16:41:40.387Z,68.53
2017-10-22T16:42:40.484Z,68.34
2017-10-22T16:43:40.419Z,69.2
2017-10-22T16:44:40.103Z,68.78
2017-10-22T16:45:40.449Z,69.26
2017-10-22T16:46:40.137Z,69.45
2017-10-22T16:47:40.156Z,69.64
2017-10-22T16:48:40.180Z,69.74
2017-10-22T16:49:40.192Z,69.48
2017-10-22T16:50:40.217Z,69.35
2017-10-22T16:51:40.247Z,69.83
2017-10-22T16:52:40.257Z,69.83
2017-10-22T16:53:40.261Z,70.02
2017-10-22T16:54:40.333Z,69.74
2017-10-22T16:55:40.301Z,69.26
2017-10-22T16:56:40.324Z,69.35
2017-10-22T16:57:40.666Z,69.74
2017-10-22T16:58:40.361Z,70.21
2017-10-22T16:59:40.697Z,70.4
2017-10-22T17:00:40.392Z,70.21
2017-10-22T17:01:40.414Z,69.35
2017-10-22T17:02:40.790Z,69.93
2017-10-22T17:03:40.447Z,69.83
2017-10-22T17:04:40.462Z,69.64
2017-10-22T17:05:40.506Z,69.54
2017-10-22T17:06:40.511Z,69.45
2017-10-22T17:07:40.522Z,69.17
2017-10-22T17:08:40.536Z,69.93
2017-10-22T17:09:40.610Z,70.02
2017-10-22T17:10:40.583Z,69.83
2017-10-22T17:11:40.602Z,70.4
2017-10-22T17:12:40.614Z,70.21
2017-10-22T17:13:40.639Z,70.4
2017-10-22T17:14:40.656Z,70.21
2017-10-22T17:15:40.666Z,70.31
2017-10-22T17:16:40.687Z,70.4
2017-10-22T17:17:40.705Z,70.4
2017-10-22T17:18:40.730Z,70.31
2017-10-22T17:19:40.740Z,70.97
2017-10-22T17:20:40.763Z,71.17
2017-10-22T17:21:40.786Z,71.64
2017-10-22T17:22:41.132Z,71.83
2017-10-22T17:23:41.162Z,71.55
2017-10-22T17:24:40.880Z,71.64
2017-10-22T17:25:41.181Z,71.45
2017-10-22T17:26:41.199Z,71.17
2017-10-22T17:27:40.889Z,71.17
2017-10-22T17:28:40.907Z,71.83
2017-10-22T17:29:40.930Z,71.83
2017-10-22T17:30:40.956Z,71.64
2017-10-22T17:31:40.965Z,71.55
2017-10-22T17:32:41.330Z,71.55
2017-10-22T17:33:41.008Z,71.55
2017-10-22T17:34:41.019Z,71.55
2017-10-22T17:35:41.038Z,71.64
2017-10-22T17:36:41.111Z,71.55
2017-10-22T17:37:41.079Z,71.45
2017-10-22T17:38:41.101Z,71.64
2017-10-22T17:39:41.110Z,72.12
2017-10-22T17:40:41.138Z,71.26
2017-10-22T17:41:41.155Z,71.55
2017-10-22T17:42:41.171Z,70.97
2017-10-22T17:43:41.192Z,70.88
2017-10-22T17:44:41.205Z,70.5
2017-10-22T17:45:41.224Z,70.5
2017-10-22T17:46:41.253Z,69.96
2017-10-22T17:47:41.262Z,69.29
2017-10-22T17:48:41.284Z,69.29
2017-10-22T17:49:41.302Z,69.77
2017-10-22T17:50:41.653Z,69.93
2017-10-22T17:51:41.335Z,70.02
2017-10-22T17:52:41.362Z,69.64
2017-10-22T17:53:41.377Z,69.83
2017-10-22T17:54:41.390Z,69.17
2017-10-22T17:55:41.413Z,69.93
2017-10-22T17:56:41.427Z,70.31
2017-10-22T17:57:41.464Z,70.88
2017-10-22T17:58:41.476Z,70.78
2017-10-22T17:59:41.818Z,70.97
2017-10-22T18:00:41.505Z,70.47
2017-10-22T18:01:41.527Z,71.32
2017-10-22T18:02:41.547Z,71.61
2017-10-22T18:03:41.562Z,72.37
2017-10-22T18:04:41.578Z,73.83
2017-10-22T18:05:41.594Z,77.26
2017-10-22T18:06:41.608Z,78.5
2017-10-22T18:07:41.630Z,82.08
2017-10-22T18:08:41.656Z,82.56
2017-10-22T18:09:41.815Z,84.17
2017-10-22T18:10:41.685Z,85.13
2017-10-22T18:11:41.704Z,86.75
2017-10-22T18:12:41.730Z,86.75
2017-10-22T18:13:41.747Z,86.61
2017-10-22T18:14:41.756Z,86.9
2017-10-22T18:15:41.772Z,85.75
2017-10-22T18:16:41.799Z,85.94
2017-10-22T18:17:41.816Z,86.9
2017-10-22T18:18:41.837Z,87.65
2017-10-22T18:19:41.858Z,87.94
2017-10-22T18:20:41.865Z,88.42
2017-10-22T18:21:41.882Z,87.18
2017-10-22T18:22:41.896Z,86.51
2017-10-22T18:23:41.932Z,87.75
2017-10-22T18:24:41.933Z,87.56
2017-10-22T18:25:42.006Z,87.75
2017-10-22T18:26:41.972Z,86.9
2017-10-22T18:27:41.991Z,86.04
2017-10-22T18:28:42.011Z,85.75
2017-10-22T18:29:42.026Z,86.22
2017-10-22T18:30:42.040Z,87.27
2017-10-22T18:31:42.079Z,88.51
2017-10-22T18:32:42.078Z,86.99
2017-10-22T18:33:42.097Z,86.13
2017-10-22T18:34:42.115Z,86.61
2017-10-22T18:35:42.137Z,86.51
2017-10-22T18:36:42.493Z,85.94
2017-10-22T18:37:42.168Z,87.75
2017-10-22T18:38:42.188Z,86.22
2017-10-22T18:39:42.215Z,86.13
2017-10-22T18:40:42.620Z,86.04
2017-10-22T18:41:42.563Z,86.22
2017-10-22T18:42:42.274Z,86.8
2017-10-22T18:43:42.284Z,86.18
2017-10-22T18:44:42.295Z,86.8
2017-10-22T18:45:42.315Z,86.32
2017-10-22T18:46:42.333Z,87.08
2017-10-22T18:47:42.345Z,89.84
2017-10-22T18:48:42.367Z,89.84
2017-10-22T18:49:42.379Z,88.79
2017-10-22T18:50:42.398Z,88.23
2017-10-22T18:51:42.414Z,88.42
2017-10-22T18:52:42.432Z,87.85
2017-10-22T18:53:42.466Z,87.65
2017-10-22T18:54:42.469Z,86.99
2017-10-22T18:55:42.491Z,87.94
2017-10-22T18:56:42.539Z,88.51
2017-10-22T18:57:42.573Z,89.08
2017-10-22T18:58:42.545Z,89.37
2017-10-22T18:59:42.560Z,89.27
2017-10-22T19:00:42.571Z,89.84
2017-10-22T19:01:42.592Z,89.94
2017-10-22T19:02:42.616Z,88.99
2017-10-22T19:03:42.631Z,89.18
2017-10-22T19:04:42.651Z,90.13
2017-10-22T19:05:42.667Z,89.65
2017-10-22T19:06:42.686Z,90.89
2017-10-22T19:07:42.702Z,91.37
2017-10-22T19:08:42.722Z,90.51
2017-10-22T19:09:42.738Z,89.94
2017-10-22T19:10:42.751Z,90.42
2017-10-22T19:11:42.770Z,90.61
2017-10-22T19:12:42.792Z,91.56
2017-10-22T19:13:43.138Z,92.22
2017-10-22T19:14:42.833Z,92.03
2017-10-22T19:15:42.891Z,91.84
2017-10-22T19:16:42.855Z,92.13
2017-10-22T19:17:42.882Z,92.51
2017-10-22T19:18:42.911Z,91.65
2017-10-22T19:19:43.242Z,92.41
2017-10-22T19:20:42.951Z,92.99
2017-10-22T19:21:42.946Z,92.79
2017-10-22T19:22:42.973Z,93.55
2017-10-22T19:23:42.988Z,92.79
2017-10-22T19:24:43.006Z,92.51
2017-10-22T19:25:43.017Z,92.89
2017-10-22T19:26:43.037Z,93.7
2017-10-22T19:27:43.052Z,93.79
2017-10-22T19:28:43.085Z,94.37
2017-10-22T19:29:43.091Z,94.56
2017-10-22T19:30:43.110Z,95.03
2017-10-22T19:31:43.502Z,94.74
2017-10-22T19:32:43.160Z,94.74
2017-10-22T19:33:43.161Z,94.84
2017-10-22T19:34:43.196Z,94.08
2017-10-22T19:35:43.196Z,94.56
2017-10-22T19:36:43.209Z,94.18
2017-10-22T19:37:43.229Z,94.93
2017-10-22T19:38:43.245Z,94.93
2017-10-22T19:39:43.270Z,94.65
2017-10-22T19:40:43.286Z,94.84
2017-10-22T19:41:43.301Z,94.84
2017-10-22T19:42:43.326Z,94.27
2017-10-22T19:43:43.364Z,93.79
2017-10-22T19:44:43.352Z,94.18
2017-10-22T19:45:43.369Z,94.08
2017-10-22T19:46:43.388Z,94.84
2017-10-22T19:47:43.401Z,95.89
2017-10-22T19:48:43.421Z,94.46
2017-10-22T19:49:43.489Z,94.93
2017-10-22T19:50:43.780Z,95.12
2017-10-22T19:51:43.794Z,94.93
2017-10-22T19:52:43.499Z,94.27
2017-10-22T19:53:43.512Z,93.98
2017-10-22T19:54:43.523Z,93.98
2017-10-22T19:55:43.549Z,94.08
2017-10-22T19:56:43.569Z,94.37
2017-10-22T19:57:43.582Z,94.74
2017-10-22T19:58:43.599Z,94.74
2017-10-22T19:59:43.622Z,95.03
2017-10-22T20:00:43.629Z,94.84
2017-10-22T20:01:43.985Z,94.93
2017-10-22T20:02:43.666Z,94.84
2017-10-22T20:03:43.685Z,94.37
2017-10-22T20:04:43.703Z,94.27
2017-10-22T20:05:43.779Z,94.56
2017-10-22T20:06:43.748Z,95.12
2017-10-22T20:07:43.750Z,94.84
2017-10-22T20:08:43.773Z,95.03
2017-10-22T20:09:43.794Z,94.84
2017-10-22T20:10:44.125Z,94.98
2017-10-22T20:11:43.834Z,93.84
2017-10-22T20:12:43.836Z,94.89
2017-10-22T20:13:43.860Z,94.98
2017-10-22T20:14:44.199Z,95.17
2017-10-22T20:15:43.889Z,95.08
2017-10-22T20:16:44.438Z,95.27
2017-10-22T20:17:43.927Z,95.46
2017-10-22T20:18:43.939Z,95.17
2017-10-22T20:19:43.967Z,95.12
2017-10-22T20:20:43.978Z,94.32
2017-10-22T20:21:44.003Z,94.6
2017-10-22T20:22:44.019Z,94.6
2017-10-22T20:23:44.036Z,95.32
2017-10-22T20:24:44.074Z,94.74
2017-10-22T20:25:44.064Z,94.93
2017-10-22T20:26:44.086Z,93.79
2017-10-22T20:27:44.099Z,93.7
2017-10-22T20:28:44.117Z,93.6
2017-10-22T20:29:44.133Z,93.89
2017-10-22T20:30:44.147Z,94.18
2017-10-22T20:31:44.165Z,94.56
2017-10-22T20:32:44.184Z,94.84
2017-10-22T20:33:44.205Z,94.56
2017-10-22T20:34:44.221Z,93.41
2017-10-22T20:35:44.235Z,93.89
2017-10-22T20:36:44.253Z,93.6
2017-10-22T20:37:44.280Z,93.6
2017-10-22T20:38:44.287Z,93.98
2017-10-22T20:39:44.308Z,93.98
2017-10-22T20:40:44.324Z,93.7
2017-10-22T20:41:44.598Z,93.23
2017-10-22T20:42:44.356Z,93.6
2017-10-22T20:43:44.377Z,93.98
2017-10-22T20:44:44.392Z,93.79
2017-10-22T20:45:44.412Z,93.13
2017-10-22T20:46:44.439Z,92.94
2017-10-22T20:47:44.440Z,92.94
2017-10-22T20:48:44.461Z,93.23
2017-10-22T20:49:44.478Z,93.41
2017-10-22T20:50:44.499Z,92.94
2017-10-22T20:51:44.515Z,92.75
2017-10-22T20:52:44.546Z,93.7
2017-10-22T20:53:44.550Z,93.98
2017-10-22T20:54:44.576Z,93.51
2017-10-22T20:55:44.581Z,93.04
2017-10-22T20:56:44.960Z,92.84
2017-10-22T20:57:44.622Z,92.65
2017-10-22T20:58:44.645Z,93.32
2017-10-22T20:59:44.651Z,93.6
2017-10-22T21:00:44.724Z,93.89
2017-10-22T21:01:44.692Z,93.89
2017-10-22T21:02:44.704Z,93.79
2017-10-22T21:03:44.752Z,93.89
2017-10-22T21:04:44.746Z,93.51
2017-10-22T21:05:44.763Z,93.7
2017-10-22T21:06:44.775Z,93.23
2017-10-22T21:07:44.792Z,93.13
2017-10-22T21:08:44.818Z,93.46
2017-10-22T21:09:44.828Z,92.84
2017-10-22T21:10:44.845Z,92.94
2017-10-22T21:11:44.869Z,92.65
2017-10-22T21:12:44.887Z,91.99
2017-10-22T21:13:44.898Z,92.94
2017-10-22T21:14:44.924Z,92.08
2017-10-22T21:15:44.936Z,92.46
2017-10-22T21:16:45.277Z,91.99
2017-10-22T21:17:45.019Z,91.32
2017-10-22T21:18:44.991Z,91.89
2017-10-22T21:19:45.352Z,92.08
2017-10-22T21:20:45.042Z,91.84
2017-10-22T21:21:45.048Z,91.99
2017-10-22T21:22:45.060Z,91.7
2017-10-22T21:23:45.075Z,92.27
2017-10-22T21:24:45.100Z,92.36
2017-10-22T21:25:45.120Z,92.65
2017-10-22T21:26:45.135Z,92.46
2017-10-22T21:27:45.149Z,91.99
2017-10-22T21:28:45.163Z,92.08
2017-10-22T21:29:45.180Z,92.08
2017-10-22T21:30:45.205Z,91.37
2017-10-22T21:31:45.214Z,91.61
2017-10-22T21:32:45.298Z,92.79
2017-10-22T21:33:45.256Z,92.79
2017-10-22T21:34:45.275Z,91.84
2017-10-22T21:35:45.287Z,91.08
2017-10-22T21:36:45.625Z,91.17
2017-10-22T21:37:45.324Z,90.99
2017-10-22T21:38:45.343Z,90.32
2017-10-22T21:39:45.358Z,91.37
2017-10-22T21:40:45.383Z,90.22
2017-10-22T21:41:45.393Z,90.89
2017-10-22T21:42:45.410Z,91.94
2017-10-22T21:43:45.428Z,91.37
2017-10-22T21:44:45.445Z,90.51
2017-10-22T21:45:45.467Z,90.89
2017-10-22T21:46:45.480Z,90.8
2017-10-22T21:47:45.509Z,90.32
2017-10-22T21:48:45.569Z,89.99
2017-10-22T21:49:45.537Z,90.56
2017-10-22T21:50:45.556Z,91.22
2017-10-22T21:51:45.573Z,90.94
2017-10-22T21:52:45.590Z,90.61
2017-10-22T21:53:45.607Z,90.75
2017-10-22T21:54:45.624Z,91.32
2017-10-22T21:55:45.669Z,91.22
2017-10-22T21:56:45.660Z,91.51
2017-10-22T21:57:45.681Z,90.84
2017-10-22T21:58:45.700Z,91.32
2017-10-22T21:59:45.721Z,90.7
2017-10-22T22:00:45.733Z,90.22
2017-10-22T22:01:45.754Z,90.7
2017-10-22T22:02:45.769Z,90.75
2017-10-22T22:03:45.789Z,91.22
2017-10-22T22:04:45.801Z,90.61
2017-10-22T22:05:45.822Z,90.47
2017-10-22T22:06:45.843Z,91.61
2017-10-22T22:07:46.209Z,90.56
2017-10-22T22:08:45.884Z,91.03
2017-10-22T22:09:45.897Z,90.51
2017-10-22T22:10:45.915Z,90.37
2017-10-22T22:11:45.931Z,90.84
2017-10-22T22:12:45.947Z,91.13
2017-10-22T22:13:45.964Z,89.99
2017-10-22T22:14:45.980Z,91.03
2017-10-22T22:15:46.003Z,90.75
2017-10-22T22:16:46.019Z,91.13
2017-10-22T22:17:46.035Z,91.61
2017-10-22T22:18:46.059Z,91.42
2017-10-22T22:19:46.075Z,91.61
2017-10-22T22:20:46.086Z,91.8
2017-10-22T22:21:46.108Z,91.89
2017-10-22T22:22:46.127Z,92.08
2017-10-22T22:23:46.139Z,91.22
2017-10-22T22:24:46.168Z,91.22
2017-10-22T22:25:46.522Z,91.99
2017-10-22T22:26:46.246Z,92.08
2017-10-22T22:27:46.210Z,92.46
2017-10-22T22:28:46.238Z,91.32
2017-10-22T22:29:46.247Z,91.32
2017-10-22T22:30:46.264Z,91.61
2017-10-22T22:31:46.292Z,91.89
2017-10-22T22:32:46.302Z,91.32
2017-10-22T22:33:46.340Z,91.32
2017-10-22T22:34:46.336Z,91.22
2017-10-22T22:35:46.353Z,91.51
2017-10-22T22:36:46.373Z,91.22
2017-10-22T22:37:46.393Z,91.42
2017-10-22T22:38:46.407Z,91.22
2017-10-22T22:39:46.435Z,91.03
2017-10-22T22:40:46.776Z,91.51
2017-10-22T22:41:46.457Z,91.7
2017-10-22T22:42:46.482Z,91.03
2017-10-22T22:43:46.492Z,91.32
2017-10-22T22:44:46.521Z,91.32
2017-10-22T22:45:46.532Z,91.61
2017-10-22T22:46:46.874Z,91.13
2017-10-22T22:47:46.584Z,90.94
2017-10-22T22:48:46.585Z,91.7
2017-10-22T22:49:46.599Z,91.32
2017-10-22T22:50:46.623Z,91.94
2017-10-22T22:51:46.633Z,92.22
2017-10-22T22:52:46.648Z,91.66
2017-10-22T22:53:46.668Z,91.56
2017-10-22T22:54:46.684Z,91.85
2017-10-22T22:55:46.709Z,91.37
2017-10-22T22:56:46.723Z,91.47
2017-10-22T22:57:46.738Z,92.03
2017-10-22T22:58:46.803Z,92.08
2017-10-22T22:59:46.770Z,91.8
2017-10-22T23:00:46.789Z,92.18
2017-10-22T23:01:46.807Z,91.13
2017-10-22T23:02:46.826Z,91.51
2017-10-22T23:03:46.849Z,91.08
2017-10-22T23:04:46.856Z,91.32
2017-10-22T23:05:46.880Z,90.75
2017-10-22T23:06:46.891Z,90.7
2017-10-22T23:07:46.913Z,91.32
2017-10-22T23:08:46.930Z,91.66
2017-10-22T23:09:46.955Z,91.85
2017-10-22T23:10:46.980Z,91.08
2017-10-22T23:11:46.983Z,91.08
2017-10-22T23:12:46.998Z,91.28
2017-10-22T23:13:47.062Z,91.47
2017-10-22T23:14:47.031Z,91.75
2017-10-22T23:15:47.048Z,91.47
2017-10-22T23:16:47.068Z,90.89
2017-10-22T23:17:47.084Z,91.28
2017-10-22T23:18:47.110Z,91.18
2017-10-22T23:19:47.114Z,91.47
2017-10-22T23:20:47.133Z,91.28
2017-10-22T23:21:47.147Z,90.8
2017-10-22T23:22:47.172Z,91.28
2017-10-22T23:23:47.184Z,90.7
2017-10-22T23:24:47.219Z,90.47
2017-10-22T23:25:47.223Z,90.84
2017-10-22T23:26:47.239Z,90.08
2017-10-22T23:27:47.256Z,90.61
2017-10-22T23:28:47.275Z,90.56
2017-10-22T23:29:47.290Z,90.56
2017-10-22T23:30:47.305Z,90.52
2017-10-22T23:31:47.322Z,90.47
2017-10-22T23:32:47.339Z,90.56
2017-10-22T23:33:47.362Z,91.28
2017-10-22T23:34:47.372Z,90.52
2017-10-22T23:35:47.395Z,90.18
2017-10-22T23:36:47.408Z,90.8
2017-10-22T23:37:47.424Z,90.47
2017-10-22T23:38:47.448Z,90.47
2017-10-22T23:39:47.464Z,90.56
2017-10-22T23:40:47.479Z,90.75
2017-10-22T23:41:47.500Z,91.42
2017-10-22T23:42:47.511Z,90.94
2017-10-22T23:43:47.524Z,90.52
2017-10-22T23:44:47.550Z,90.37
2017-10-22T23:45:47.562Z,90.61
2017-10-22T23:46:47.587Z,90.89
2017-10-22T23:47:47.610Z,91.47
2017-10-22T23:48:47.614Z,90.8
2017-10-22T23:49:47.628Z,90.89
2017-10-22T23:50:47.644Z,91.18
2017-10-22T23:51:48.042Z,90.61
2017-10-22T23:52:48.019Z,91.18
2017-10-22T23:53:47.700Z,91.66
2017-10-22T23:54:47.719Z,91.56
2017-10-22T23:55:47.750Z,90.61
2017-10-22T23:56:47.750Z,90.7
2017-10-22T23:57:47.768Z,90.8
2017-10-22T23:58:47.785Z,90.7
2017-10-22T23:59:47.799Z,90.7
